sensor_id;sensor_type;location;lat;lon;timestamp;pressure;altitude;pressure_sealevel;temperature;humidity
22938;BME280;11634;42.734;23.298;2023-02-03T00:01:01;95555.13;;;3.29;100.00
22938;BME280;11634;42.734;23.298;2023-02-03T00:03:27;95541.97;;;3.20;100.00
22938;BME280;11634;42.734;23.298;2023-02-03T00:05:53;95553.22;;;3.17;100.00
22938;BME280;11634;42.734;23.298;2023-02-03T00:08:20;95540.31;;;3.03;100.00
22938;BME280;11634;42.734;23.298;2023-02-03T00:10:46;95544.03;;;2.98;100.00
22938;BME280;11634;42.734;23.298;2023-02-03T00:13:11;95547.91;;;2.89;100.00
22938;BME280;11634;42.734;23.298;2023-02-03T00:15:38;95551.88;;;2.95;100.00
22938;BME280;11634;42.734;23.298;2023-02-03T00:18:03;95551.81;;;2.96;100.00
22938;BME280;11634;42.734;23.298;2023-02-03T00:20:29;95536.31;;;2.82;100.00
22938;BME280;11634;42.734;23.298;2023-02-03T00:23:10;95543.28;;;2.96;100.00
22938;BME280;11634;42.734;23.298;2023-02-03T00:25:36;95545.59;;;2.85;100.00
22938;BME280;11634;42.734;23.298;2023-02-03T00:28:03;95548.84;;;2.88;100.00
22938;BME280;11634;42.734;23.298;2023-02-03T00:30:29;95527.59;;;2.85;100.00
22938;BME280;11634;42.734;23.298;2023-02-03T00:32:55;95555.06;;;2.84;100.00
22938;BME280;11634;42.734;23.298;2023-02-03T00:35:21;95519.91;;;2.70;100.00
22938;BME280;11634;42.734;23.298;2023-02-03T00:37:54;95539.13;;;2.78;100.00
22938;BME280;11634;42.734;23.298;2023-02-03T00:40:22;95545.25;;;2.75;100.00
22938;BME280;11634;42.734;23.298;2023-02-03T00:42:47;95513.75;;;2.57;100.00
22938;BME280;11634;42.734;23.298;2023-02-03T00:45:13;95522.13;;;2.60;100.00
22938;BME280;11634;42.734;23.298;2023-02-03T00:47:38;95537.97;;;2.68;100.00
22938;BME280;11634;42.734;23.298;2023-02-03T00:50:05;95523.38;;;2.69;100.00
22938;BME280;11634;42.734;23.298;2023-02-03T00:52:31;95523.97;;;2.73;100.00
22938;BME280;11634;42.734;23.298;2023-02-03T00:54:57;95523.38;;;2.69;100.00
22938;BME280;11634;42.734;23.298;2023-02-03T00:57:22;95508.69;;;2.55;100.00
22938;BME280;11634;42.734;23.298;2023-02-03T00:59:49;95509.38;;;2.59;100.00
22938;BME280;11634;42.734;23.298;2023-02-03T01:02:15;95536.13;;;2.70;100.00
22938;BME280;11634;42.734;23.298;2023-02-03T01:04:42;95547.47;;;2.66;100.00
22938;BME280;11634;42.734;23.298;2023-02-03T01:07:09;95517.88;;;2.44;100.00
22938;BME280;11634;42.734;23.298;2023-02-03T01:09:35;95550.22;;;2.63;100.00
22938;BME280;11634;42.734;23.298;2023-02-03T01:12:02;95508.94;;;2.51;100.00
22938;BME280;11634;42.734;23.298;2023-02-03T01:14:28;95541.09;;;2.58;100.00
22938;BME280;11634;42.734;23.298;2023-02-03T01:16:53;95518.84;;;2.41;100.00
22938;BME280;11634;42.734;23.298;2023-02-03T01:19:19;95526.16;;;2.49;100.00
22938;BME280;11634;42.734;23.298;2023-02-03T01:21:44;95533.94;;;2.47;100.00
22938;BME280;11634;42.734;23.298;2023-02-03T01:24:10;95536.13;;;2.55;100.00
22938;BME280;11634;42.734;23.298;2023-02-03T01:26:37;95527.81;;;2.50;100.00
22938;BME280;11634;42.734;23.298;2023-02-03T01:29:03;95529.22;;;2.55;100.00
22938;BME280;11634;42.734;23.298;2023-02-03T01:31:33;95525.31;;;2.48;100.00
22938;BME280;11634;42.734;23.298;2023-02-03T01:34:02;95527.47;;;2.40;100.00
22938;BME280;11634;42.734;23.298;2023-02-03T01:36:30;95539.31;;;2.43;100.00
22938;BME280;11634;42.734;23.298;2023-02-03T01:38:56;95541.38;;;2.36;100.00
22938;BME280;11634;42.734;23.298;2023-02-03T01:41:27;95546.41;;;2.38;100.00
22938;BME280;11634;42.734;23.298;2023-02-03T01:43:55;95555.25;;;2.32;100.00
22938;BME280;11634;42.734;23.298;2023-02-03T01:46:40;95555.19;;;2.34;100.00
22938;BME280;11634;42.734;23.298;2023-02-03T01:49:17;95564.09;;;2.44;100.00
22938;BME280;11634;42.734;23.298;2023-02-03T01:51:44;95549.91;;;2.37;100.00
22938;BME280;11634;42.734;23.298;2023-02-03T01:54:32;95562.25;;;2.46;100.00
22938;BME280;11634;42.734;23.298;2023-02-03T01:57:04;95576.00;;;2.45;100.00
22938;BME280;11634;42.734;23.298;2023-02-03T01:59:33;95570.28;;;2.40;100.00
22938;BME280;11634;42.734;23.298;2023-02-03T02:01:59;95549.31;;;2.32;100.00
22938;BME280;11634;42.734;23.298;2023-02-03T02:04:48;95573.50;;;2.43;100.00
22938;BME280;11634;42.734;23.298;2023-02-03T02:07:19;95574.50;;;2.41;100.00
22938;BME280;11634;42.734;23.298;2023-02-03T02:09:45;95591.56;;;2.42;100.00
22938;BME280;11634;42.734;23.298;2023-02-03T02:12:13;95561.81;;;2.38;100.00
22938;BME280;11634;42.734;23.298;2023-02-03T02:14:40;95563.03;;;2.31;100.00
22938;BME280;11634;42.734;23.298;2023-02-03T02:17:44;95595.72;;;2.44;100.00
22938;BME280;11634;42.734;23.298;2023-02-03T02:34:24;95603.34;;;2.46;100.00
22938;BME280;11634;42.734;23.298;2023-02-03T02:37:06;95603.34;;;2.46;100.00
22938;BME280;11634;42.734;23.298;2023-02-03T02:42:32;95613.63;;;2.46;100.00
22938;BME280;11634;42.734;23.298;2023-02-03T02:45:16;95617.25;;;2.42;100.00
22938;BME280;11634;42.734;23.298;2023-02-03T02:47:49;95621.72;;;2.38;100.00
22938;BME280;11634;42.734;23.298;2023-02-03T02:50:22;95633.78;;;2.36;100.00
22938;BME280;11634;42.734;23.298;2023-02-03T02:52:50;95612.97;;;2.25;100.00
22938;BME280;11634;42.734;23.298;2023-02-03T02:55:22;95635.78;;;2.31;100.00
22938;BME280;11634;42.734;23.298;2023-02-03T02:57:53;95628.72;;;2.35;100.00
22938;BME280;11634;42.734;23.298;2023-02-03T03:00:20;95633.06;;;2.34;100.00
22938;BME280;11634;42.734;23.298;2023-02-03T03:02:46;95569.97;;;1.97;100.00
22938;BME280;11634;42.734;23.298;2023-02-03T03:05:13;95645.41;;;2.43;100.00
22938;BME280;11634;42.734;23.298;2023-02-03T03:07:53;95621.34;;;2.29;100.00
22938;BME280;11634;42.734;23.298;2023-02-03T03:10:23;95652.22;;;2.44;100.00
22938;BME280;11634;42.734;23.298;2023-02-03T03:12:56;95650.03;;;2.37;100.00
22938;BME280;11634;42.734;23.298;2023-02-03T03:15:26;95666.28;;;2.37;100.00
22938;BME280;11634;42.734;23.298;2023-02-03T03:18:27;95669.34;;;2.27;100.00
22938;BME280;11634;42.734;23.298;2023-02-03T03:20:56;95671.47;;;2.19;100.00
22938;BME280;11634;42.734;23.298;2023-02-03T03:23:32;95668.00;;;2.20;100.00
22938;BME280;11634;42.734;23.298;2023-02-03T03:32:00;95661.94;;;2.04;100.00
22938;BME280;11634;42.734;23.298;2023-02-03T03:34:27;95645.50;;;1.91;100.00
22938;BME280;11634;42.734;23.298;2023-02-03T03:37:00;95659.13;;;1.92;100.00
22938;BME280;11634;42.734;23.298;2023-02-03T03:39:51;95684.84;;;2.09;100.00
22938;BME280;11634;42.734;23.298;2023-02-03T03:45:13;95676.91;;;1.96;100.00
22938;BME280;11634;42.734;23.298;2023-02-03T03:47:42;95686.44;;;2.11;100.00
22938;BME280;11634;42.734;23.298;2023-02-03T03:50:15;95673.47;;;1.96;100.00
22938;BME280;11634;42.734;23.298;2023-02-03T03:52:42;95656.28;;;1.98;100.00
22938;BME280;11634;42.734;23.298;2023-02-03T03:55:11;95663.00;;;2.00;100.00
22938;BME280;11634;42.734;23.298;2023-02-03T03:57:42;95683.88;;;2.11;100.00
22938;BME280;11634;42.734;23.298;2023-02-03T04:00:12;95669.13;;;1.98;100.00
22938;BME280;11634;42.734;23.298;2023-02-03T04:02:45;95664.19;;;1.93;100.00
22938;BME280;11634;42.734;23.298;2023-02-03T04:05:15;95670.44;;;1.88;100.00
22938;BME280;11634;42.734;23.298;2023-02-03T04:07:43;95681.25;;;1.94;100.00
22938;BME280;11634;42.734;23.298;2023-02-03T04:12:53;95677.31;;;1.87;100.00
22938;BME280;11634;42.734;23.298;2023-02-03T04:15:19;95643.50;;;1.79;100.00
22938;BME280;11634;42.734;23.298;2023-02-03T04:17:44;95688.72;;;1.99;100.00
22938;BME280;11634;42.734;23.298;2023-02-03T04:20:10;95692.88;;;2.01;100.00
22938;BME280;11634;42.734;23.298;2023-02-03T04:22:36;95697.13;;;2.02;100.00
22938;BME280;11634;42.734;23.298;2023-02-03T04:25:02;95679.59;;;1.93;100.00
22938;BME280;11634;42.734;23.298;2023-02-03T04:27:27;95699.78;;;2.17;100.00
22938;BME280;11634;42.734;23.298;2023-02-03T04:29:53;95697.19;;;2.17;100.00
22938;BME280;11634;42.734;23.298;2023-02-03T04:32:18;95707.78;;;2.28;100.00
22938;BME280;11634;42.734;23.298;2023-02-03T04:34:44;95719.25;;;2.21;100.00
22938;BME280;11634;42.734;23.298;2023-02-03T04:37:10;95718.84;;;2.12;100.00
22938;BME280;11634;42.734;23.298;2023-02-03T04:39:36;95707.63;;;2.15;100.00
22938;BME280;11634;42.734;23.298;2023-02-03T04:42:01;95728.97;;;2.15;100.00
22938;BME280;11634;42.734;23.298;2023-02-03T04:44:27;95715.09;;;2.02;100.00
22938;BME280;11634;42.734;23.298;2023-02-03T04:46:52;95738.13;;;2.20;100.00
22938;BME280;11634;42.734;23.298;2023-02-03T04:49:18;95710.28;;;2.13;100.00
22938;BME280;11634;42.734;23.298;2023-02-03T04:51:44;95714.78;;;2.08;100.00
22938;BME280;11634;42.734;23.298;2023-02-03T04:54:10;95728.00;;;2.17;100.00
22938;BME280;11634;42.734;23.298;2023-02-03T04:56:36;95757.97;;;2.17;100.00
22938;BME280;11634;42.734;23.298;2023-02-03T04:59:02;95715.31;;;1.98;100.00
22938;BME280;11634;42.734;23.298;2023-02-03T05:01:28;95709.78;;;1.88;100.00
22938;BME280;11634;42.734;23.298;2023-02-03T05:03:53;95757.34;;;2.12;100.00
22938;BME280;11634;42.734;23.298;2023-02-03T05:06:26;95744.25;;;2.18;100.00
22938;BME280;11634;42.734;23.298;2023-02-03T05:08:53;95739.47;;;2.11;100.00
22938;BME280;11634;42.734;23.298;2023-02-03T05:11:19;95665.53;;;1.66;100.00
22938;BME280;11634;42.734;23.298;2023-02-03T05:13:45;95728.34;;;1.93;100.00
22938;BME280;11634;42.734;23.298;2023-02-03T05:16:11;95717.31;;;1.91;100.00
22938;BME280;11634;42.734;23.298;2023-02-03T05:18:38;95747.16;;;1.94;100.00
22938;BME280;11634;42.734;23.298;2023-02-03T05:21:04;95773.81;;;2.08;100.00
22938;BME280;11634;42.734;23.298;2023-02-03T05:23:29;95765.84;;;1.96;100.00
22938;BME280;11634;42.734;23.298;2023-02-03T05:25:55;95754.91;;;1.92;100.00
22938;BME280;11634;42.734;23.298;2023-02-03T05:28:20;95787.47;;;2.09;100.00
22938;BME280;11634;42.734;23.298;2023-02-03T05:30:46;95745.88;;;1.84;100.00
22938;BME280;11634;42.734;23.298;2023-02-03T05:33:11;95779.44;;;1.98;100.00
22938;BME280;11634;42.734;23.298;2023-02-03T05:35:37;95808.19;;;2.04;100.00
22938;BME280;11634;42.734;23.298;2023-02-03T05:38:02;95791.09;;;2.05;100.00
22938;BME280;11634;42.734;23.298;2023-02-03T05:40:28;95796.56;;;1.97;100.00
22938;BME280;11634;42.734;23.298;2023-02-03T05:43:12;95785.69;;;1.92;100.00
22938;BME280;11634;42.734;23.298;2023-02-03T05:45:38;95789.66;;;1.99;100.00
22938;BME280;11634;42.734;23.298;2023-02-03T05:48:04;95785.09;;;2.04;100.00
22938;BME280;11634;42.734;23.298;2023-02-03T05:50:31;95806.03;;;2.14;100.00
22938;BME280;11634;42.734;23.298;2023-02-03T05:53:07;95802.38;;;2.19;100.00
22938;BME280;11634;42.734;23.298;2023-02-03T05:55:34;95812.13;;;2.29;100.00
22938;BME280;11634;42.734;23.298;2023-02-03T05:58:02;95801.88;;;2.29;100.00
22938;BME280;11634;42.734;23.298;2023-02-03T06:00:29;95814.34;;;2.37;100.00
22938;BME280;11634;42.734;23.298;2023-02-03T06:02:58;95823.63;;;2.39;100.00
22938;BME280;11634;42.734;23.298;2023-02-03T06:05:27;95802.03;;;2.26;100.00
22938;BME280;11634;42.734;23.298;2023-02-03T06:07:53;95803.63;;;2.29;100.00
22938;BME280;11634;42.734;23.298;2023-02-03T06:10:21;95792.56;;;2.27;100.00
22938;BME280;11634;42.734;23.298;2023-02-03T06:12:48;95814.94;;;2.42;100.00
22938;BME280;11634;42.734;23.298;2023-02-03T06:15:15;95837.09;;;2.44;100.00
22938;BME280;11634;42.734;23.298;2023-02-03T06:17:45;95831.88;;;2.46;100.00
22938;BME280;11634;42.734;23.298;2023-02-03T06:20:12;95812.53;;;2.39;100.00
22938;BME280;11634;42.734;23.298;2023-02-03T06:22:38;95831.66;;;2.50;100.00
22938;BME280;11634;42.734;23.298;2023-02-03T06:25:04;95821.47;;;2.49;100.00
22938;BME280;11634;42.734;23.298;2023-02-03T06:27:29;95816.31;;;2.49;100.00
22938;BME280;11634;42.734;23.298;2023-02-03T06:29:55;95810.88;;;2.38;100.00
22938;BME280;11634;42.734;23.298;2023-02-03T06:32:21;95838.22;;;2.56;100.00
22938;BME280;11634;42.734;23.298;2023-02-03T06:34:46;95773.94;;;2.23;100.00
22938;BME280;11634;42.734;23.298;2023-02-03T06:37:12;95817.91;;;2.51;100.00
22938;BME280;11634;42.734;23.298;2023-02-03T06:39:37;95833.56;;;2.64;100.00
22938;BME280;11634;42.734;23.298;2023-02-03T06:42:03;95842.22;;;2.63;100.00
22938;BME280;11634;42.734;23.298;2023-02-03T06:44:29;95797.22;;;2.19;100.00
22938;BME280;11634;42.734;23.298;2023-02-03T06:46:54;95857.34;;;2.50;100.00
22938;BME280;11634;42.734;23.298;2023-02-03T06:49:22;95853.28;;;2.46;100.00
22938;BME280;11634;42.734;23.298;2023-02-03T06:51:47;95862.06;;;2.59;100.00
22938;BME280;11634;42.734;23.298;2023-02-03T06:54:13;95854.81;;;2.67;100.00
22938;BME280;11634;42.734;23.298;2023-02-03T06:56:38;95881.66;;;2.78;100.00
22938;BME280;11634;42.734;23.298;2023-02-03T06:59:04;95870.84;;;2.72;100.00
22938;BME280;11634;42.734;23.298;2023-02-03T07:01:30;95859.72;;;2.71;100.00
22938;BME280;11634;42.734;23.298;2023-02-03T07:03:56;95875.50;;;2.99;100.00
22938;BME280;11634;42.734;23.298;2023-02-03T07:06:24;95850.63;;;3.00;100.00
22938;BME280;11634;42.734;23.298;2023-02-03T07:08:57;95872.84;;;3.18;100.00
22938;BME280;11634;42.734;23.298;2023-02-03T07:11:23;95871.19;;;3.17;100.00
22938;BME280;11634;42.734;23.298;2023-02-03T07:13:49;95891.44;;;3.39;100.00
22938;BME280;11634;42.734;23.298;2023-02-03T07:16:14;95893.31;;;3.70;100.00
22938;BME280;11634;42.734;23.298;2023-02-03T07:18:40;95895.91;;;3.53;100.00
22938;BME280;11634;42.734;23.298;2023-02-03T07:21:06;95901.88;;;3.36;100.00
22938;BME280;11634;42.734;23.298;2023-02-03T07:23:32;95902.59;;;3.40;100.00
22938;BME280;11634;42.734;23.298;2023-02-03T07:25:59;95916.84;;;3.28;100.00
22938;BME280;11634;42.734;23.298;2023-02-03T07:28:25;95914.97;;;3.49;100.00
22938;BME280;11634;42.734;23.298;2023-02-03T07:30:52;95869.72;;;3.62;100.00
22938;BME280;11634;42.734;23.298;2023-02-03T07:33:17;95878.19;;;3.64;100.00
22938;BME280;11634;42.734;23.298;2023-02-03T07:35:53;95916.16;;;3.92;100.00
22938;BME280;11634;42.734;23.298;2023-02-03T07:38:19;95911.47;;;3.83;100.00
22938;BME280;11634;42.734;23.298;2023-02-03T07:40:45;95938.25;;;3.79;100.00
22938;BME280;11634;42.734;23.298;2023-02-03T07:43:13;95926.28;;;3.78;100.00
22938;BME280;11634;42.734;23.298;2023-02-03T07:45:39;95937.16;;;4.00;100.00
22938;BME280;11634;42.734;23.298;2023-02-03T07:48:06;95937.03;;;3.86;100.00
22938;BME280;11634;42.734;23.298;2023-02-03T07:50:33;95944.69;;;4.20;100.00
22938;BME280;11634;42.734;23.298;2023-02-03T07:52:59;95926.63;;;5.43;100.00
22938;BME280;11634;42.734;23.298;2023-02-03T07:55:25;95946.84;;;4.90;100.00
22938;BME280;11634;42.734;23.298;2023-02-03T07:57:55;95954.56;;;4.60;100.00
22938;BME280;11634;42.734;23.298;2023-02-03T08:00:22;95950.78;;;4.02;100.00
22938;BME280;11634;42.734;23.298;2023-02-03T08:02:49;95944.56;;;4.06;100.00
22938;BME280;11634;42.734;23.298;2023-02-03T08:05:15;95975.69;;;4.19;100.00
22938;BME280;11634;42.734;23.298;2023-02-03T08:07:41;95967.66;;;4.08;100.00
22938;BME280;11634;42.734;23.298;2023-02-03T08:10:16;95956.22;;;4.13;100.00
22938;BME280;11634;42.734;23.298;2023-02-03T08:12:52;95953.38;;;4.34;100.00
22938;BME280;11634;42.734;23.298;2023-02-03T08:15:17;95968.06;;;4.32;100.00
22938;BME280;11634;42.734;23.298;2023-02-03T08:17:43;95956.94;;;4.32;100.00
22938;BME280;11634;42.734;23.298;2023-02-03T08:20:09;95938.88;;;3.84;100.00
22938;BME280;11634;42.734;23.298;2023-02-03T08:22:36;95952.22;;;4.08;100.00
22938;BME280;11634;42.734;23.298;2023-02-03T08:25:02;95940.97;;;4.26;100.00
22938;BME280;11634;42.734;23.298;2023-02-03T08:27:30;95924.09;;;4.20;100.00
22938;BME280;11634;42.734;23.298;2023-02-03T08:29:57;95933.22;;;4.26;100.00
22938;BME280;11634;42.734;23.298;2023-02-03T08:32:23;95929.00;;;4.25;100.00
22938;BME280;11634;42.734;23.298;2023-02-03T08:34:50;95922.34;;;4.21;100.00
22938;BME280;11634;42.734;23.298;2023-02-03T08:37:17;95925.84;;;4.20;100.00
22938;BME280;11634;42.734;23.298;2023-02-03T08:39:43;95952.31;;;4.38;100.00
22938;BME280;11634;42.734;23.298;2023-02-03T08:42:09;95965.53;;;4.48;100.00
22938;BME280;11634;42.734;23.298;2023-02-03T08:44:35;95966.06;;;4.70;100.00
22938;BME280;11634;42.734;23.298;2023-02-03T08:47:04;95957.28;;;4.72;100.00
22938;BME280;11634;42.734;23.298;2023-02-03T08:49:30;95971.78;;;4.75;100.00
22938;BME280;11634;42.734;23.298;2023-02-03T08:51:57;95975.75;;;4.65;100.00
22938;BME280;11634;42.734;23.298;2023-02-03T08:54:23;95978.81;;;4.56;100.00
22938;BME280;11634;42.734;23.298;2023-02-03T08:56:50;95964.88;;;4.75;100.00
22938;BME280;11634;42.734;23.298;2023-02-03T08:59:20;95972.03;;;4.86;100.00
22938;BME280;11634;42.734;23.298;2023-02-03T09:01:46;95978.88;;;5.46;100.00
22938;BME280;11634;42.734;23.298;2023-02-03T09:04:14;95981.19;;;4.76;100.00
22938;BME280;11634;42.734;23.298;2023-02-03T09:06:47;95972.03;;;4.86;100.00
22938;BME280;11634;42.734;23.298;2023-02-03T09:09:13;95955.63;;;4.56;100.00
22938;BME280;11634;42.734;23.298;2023-02-03T09:11:40;95961.88;;;4.83;100.00
22938;BME280;11634;42.734;23.298;2023-02-03T09:14:06;95950.00;;;4.49;100.00
22938;BME280;11634;42.734;23.298;2023-02-03T09:16:32;95964.44;;;4.52;100.00
22938;BME280;11634;42.734;23.298;2023-02-03T09:18:58;95964.81;;;4.77;100.00
22938;BME280;11634;42.734;23.298;2023-02-03T09:21:23;95934.53;;;4.49;100.00
22938;BME280;11634;42.734;23.298;2023-02-03T09:23:49;95964.84;;;4.60;100.00
22938;BME280;11634;42.734;23.298;2023-02-03T09:26:15;95968.13;;;4.63;100.00
22938;BME280;11634;42.734;23.298;2023-02-03T09:28:41;95960.94;;;4.53;100.00
22938;BME280;11634;42.734;23.298;2023-02-03T09:31:10;95959.13;;;4.70;100.00
22938;BME280;11634;42.734;23.298;2023-02-03T09:33:36;95970.34;;;4.69;100.00
22938;BME280;11634;42.734;23.298;2023-02-03T09:36:03;95950.72;;;4.51;100.00
22938;BME280;11634;42.734;23.298;2023-02-03T09:38:31;95976.25;;;4.56;100.00
22938;BME280;11634;42.734;23.298;2023-02-03T09:41:09;95968.13;;;4.63;100.00
22938;BME280;11634;42.734;23.298;2023-02-03T09:43:43;95946.72;;;4.61;100.00
22938;BME280;11634;42.734;23.298;2023-02-03T09:46:15;95961.13;;;4.50;100.00
22938;BME280;11634;42.734;23.298;2023-02-03T09:48:45;95980.66;;;4.54;100.00
22938;BME280;11634;42.734;23.298;2023-02-03T09:51:30;95966.88;;;4.23;100.00
22938;BME280;11634;42.734;23.298;2023-02-03T09:54:16;95976.19;;;4.25;100.00
22938;BME280;11634;42.734;23.298;2023-02-03T09:56:44;95941.56;;;4.31;100.00
22938;BME280;11634;42.734;23.298;2023-02-03T09:59:17;95950.69;;;4.68;100.00
22938;BME280;11634;42.734;23.298;2023-02-03T10:02:13;95982.75;;;4.93;97.51
22938;BME280;11634;42.734;23.298;2023-02-03T10:10:40;95953.97;;;4.86;92.40
22938;BME280;11634;42.734;23.298;2023-02-03T10:18:25;95965.88;;;4.88;90.09
22938;BME280;11634;42.734;23.298;2023-02-03T10:20:55;95959.31;;;4.67;87.70
22938;BME280;11634;42.734;23.298;2023-02-03T10:23:25;95945.81;;;4.47;85.12
22938;BME280;11634;42.734;23.298;2023-02-03T10:25:54;95945.44;;;4.70;84.10
22938;BME280;11634;42.734;23.298;2023-02-03T10:28:26;95933.50;;;5.13;85.34
22938;BME280;11634;42.734;23.298;2023-02-03T10:30:57;95942.66;;;5.19;81.67
22938;BME280;11634;42.734;23.298;2023-02-03T10:33:27;95934.66;;;5.23;80.62
22938;BME280;11634;42.734;23.298;2023-02-03T10:35:54;95920.41;;;5.61;81.22
22938;BME280;11634;42.734;23.298;2023-02-03T10:38:50;95912.59;;;5.33;83.95
22938;BME280;11634;42.734;23.298;2023-02-03T10:41:20;95918.31;;;4.78;80.22
22938;BME280;11634;42.734;23.298;2023-02-03T10:43:48;95898.78;;;4.74;86.06
22938;BME280;11634;42.734;23.298;2023-02-03T10:46:27;95928.84;;;5.04;85.34
22938;BME280;11634;42.734;23.298;2023-02-03T10:48:54;95936.03;;;5.29;81.25
22938;BME280;11634;42.734;23.298;2023-02-03T10:51:25;95899.31;;;5.10;74.11
22938;BME280;11634;42.734;23.298;2023-02-03T10:53:54;95919.22;;;4.92;73.31
22938;BME280;11634;42.734;23.298;2023-02-03T10:56:24;95898.53;;;4.63;67.43
22938;BME280;11634;42.734;23.298;2023-02-03T10:58:55;95921.06;;;4.75;68.55
22938;BME280;11634;42.734;23.298;2023-02-03T11:01:45;95908.00;;;4.78;70.58
22938;BME280;11634;42.734;23.298;2023-02-03T11:04:32;95924.22;;;4.65;68.17
22938;BME280;11634;42.734;23.298;2023-02-03T11:07:00;95925.78;;;4.52;68.33
22938;BME280;11634;42.734;23.298;2023-02-03T11:09:36;95889.06;;;4.48;67.89
22938;BME280;11634;42.734;23.298;2023-02-03T11:14:36;95916.50;;;4.49;67.31
22938;BME280;11634;42.734;23.298;2023-02-03T11:17:14;95913.91;;;4.65;65.91
22938;BME280;11634;42.734;23.298;2023-02-03T11:19:43;95912.75;;;4.70;65.24
22938;BME280;11634;42.734;23.298;2023-02-03T11:22:10;95862.06;;;4.40;65.95
22938;BME280;11634;42.734;23.298;2023-02-03T11:24:38;95914.50;;;4.70;68.18
22938;BME280;11634;42.734;23.298;2023-02-03T11:27:14;95894.97;;;4.66;70.58
22938;BME280;11634;42.734;23.298;2023-02-03T11:32:40;95873.25;;;4.24;75.94
22938;BME280;11634;42.734;23.298;2023-02-03T11:35:22;95894.94;;;4.35;73.96
22938;BME280;11634;42.734;23.298;2023-02-03T11:37:51;95882.56;;;4.57;69.60
22938;BME280;11634;42.734;23.298;2023-02-03T11:40:28;95869.84;;;4.85;64.96
22938;BME280;11634;42.734;23.298;2023-02-03T11:50:33;95868.25;;;5.27;60.95
22938;BME280;11634;42.734;23.298;2023-02-03T11:53:24;95871.00;;;5.24;60.42
22938;BME280;11634;42.734;23.298;2023-02-03T12:15:20;95870.41;;;5.48;58.10
22938;BME280;11634;42.734;23.298;2023-02-03T12:29:14;95876.59;;;4.56;56.03
22938;BME280;11634;42.734;23.298;2023-02-03T12:31:47;95899.44;;;4.78;56.94
22938;BME280;11634;42.734;23.298;2023-02-03T12:34:29;95897.03;;;4.90;56.70
22938;BME280;11634;42.734;23.298;2023-02-03T12:39:50;95887.53;;;4.90;56.41
22938;BME280;11634;42.734;23.298;2023-02-03T12:42:41;95847.53;;;5.42;57.60
22938;BME280;11634;42.734;23.298;2023-02-03T12:47:59;95842.28;;;4.85;56.54
22938;BME280;11634;42.734;23.298;2023-02-03T12:50:50;95868.59;;;4.61;57.21
22938;BME280;11634;42.734;23.298;2023-02-03T12:53:22;95867.50;;;4.65;58.45
22938;BME280;11634;42.734;23.298;2023-02-03T12:58:39;95877.38;;;4.72;60.66
22938;BME280;11634;42.734;23.298;2023-02-03T13:01:07;95880.97;;;4.85;59.74
22938;BME280;11634;42.734;23.298;2023-02-03T13:03:38;95869.13;;;4.96;56.56
22938;BME280;11634;42.734;23.298;2023-02-03T13:11:45;95860.06;;;4.60;58.47
22938;BME280;11634;42.734;23.298;2023-02-03T13:14:20;95852.53;;;4.87;59.04
22938;BME280;11634;42.734;23.298;2023-02-03T13:16:51;95842.81;;;4.61;60.68
22938;BME280;11634;42.734;23.298;2023-02-03T13:19:24;95839.94;;;4.36;61.26
22938;BME280;11634;42.734;23.298;2023-02-03T13:21:51;95830.53;;;4.35;63.05
22938;BME280;11634;42.734;23.298;2023-02-03T13:24:17;95838.94;;;4.54;62.96
22938;BME280;11634;42.734;23.298;2023-02-03T13:29:52;95845.00;;;4.97;60.79
22938;BME280;11634;42.734;23.298;2023-02-03T13:37:55;95850.34;;;4.94;61.00
22938;BME280;11634;42.734;23.298;2023-02-03T13:43:29;95838.31;;;4.80;62.49
22938;BME280;11634;42.734;23.298;2023-02-03T13:45:56;95840.41;;;4.73;63.85
22938;BME280;11634;42.734;23.298;2023-02-03T13:48:27;95868.75;;;4.88;65.48
22938;BME280;11634;42.734;23.298;2023-02-03T13:51:24;95858.66;;;4.99;66.55
22938;BME280;11634;42.734;23.298;2023-02-03T13:53:59;95836.09;;;4.74;67.11
22938;BME280;11634;42.734;23.298;2023-02-03T13:56:26;95846.78;;;4.82;68.69
22938;BME280;11634;42.734;23.298;2023-02-03T14:01:29;95866.09;;;4.75;71.18
22938;BME280;11634;42.734;23.298;2023-02-03T14:03:59;95863.16;;;4.96;70.59
22938;BME280;11634;42.734;23.298;2023-02-03T14:09:22;95849.53;;;4.79;68.86
22938;BME280;11634;42.734;23.298;2023-02-03T14:17:02;95842.75;;;4.62;70.81
22938;BME280;11634;42.734;23.298;2023-02-03T14:22:01;95847.94;;;4.91;71.05
22938;BME280;11634;42.734;23.298;2023-02-03T14:24:34;95832.72;;;4.87;72.43
22938;BME280;11634;42.734;23.298;2023-02-03T14:27:03;95833.38;;;4.90;70.67
22938;BME280;11634;42.734;23.298;2023-02-03T14:29:32;95819.28;;;4.67;71.16
22938;BME280;11634;42.734;23.298;2023-02-03T14:32:04;95842.41;;;4.68;71.47
22938;BME280;11634;42.734;23.298;2023-02-03T14:34:46;95841.75;;;4.65;72.00
22938;BME280;11634;42.734;23.298;2023-02-03T14:37:26;95848.34;;;4.55;71.27
22938;BME280;11634;42.734;23.298;2023-02-03T14:46:30;95840.50;;;4.41;71.77
22938;BME280;11634;42.734;23.298;2023-02-03T14:49:22;95850.72;;;4.27;71.14
22938;BME280;11634;42.734;23.298;2023-02-03T14:57:49;95852.75;;;4.22;71.75
22938;BME280;11634;42.734;23.298;2023-02-03T15:05:47;95828.19;;;4.15;75.08
22938;BME280;11634;42.734;23.298;2023-02-03T15:11:27;95795.56;;;4.00;75.98
22938;BME280;11634;42.734;23.298;2023-02-03T15:13:55;95807.94;;;4.09;77.26
22938;BME280;11634;42.734;23.298;2023-02-03T15:16:23;95772.31;;;3.86;77.76
22938;BME280;11634;42.734;23.298;2023-02-03T15:18:57;95774.97;;;3.85;78.77
22938;BME280;11634;42.734;23.298;2023-02-03T15:21:23;95791.34;;;3.99;79.52
22938;BME280;11634;42.734;23.298;2023-02-03T15:23:49;95751.94;;;3.67;78.62
22938;BME280;11634;42.734;23.298;2023-02-03T15:26:24;95791.66;;;3.93;79.88
22938;BME280;11634;42.734;23.298;2023-02-03T15:28:58;95788.44;;;3.90;79.31